sensor_id;sensor_type;location;lat;lon;timestamp;pressure;altitude;pressure_sealevel;temperature
73662;BMP280;61956;52.540;13.382;2022-11-20T00:02:12;52983.31;;;1.24
73662;BMP280;61956;52.540;13.382;2022-11-20T00:04:41;53545.50;;;1.30
73662;BMP280;61956;52.540;13.382;2022-11-20T00:07:10;52534.56;;;1.22
73662;BMP280;61956;52.540;13.382;2022-11-20T00:09:39;52430.41;;;1.21
73662;BMP280;61956;52.540;13.382;2022-11-20T00:12:11;52827.94;;;1.25
73662;BMP280;61956;52.540;13.382;2022-11-20T00:14:40;52491.09;;;1.21
73662;BMP280;61956;52.540;13.382;2022-11-20T00:17:09;52065.44;;;1.20
73662;BMP280;61956;52.540;13.382;2022-11-20T00:19:39;52607.03;;;1.22
73662;BMP280;61956;52.540;13.382;2022-11-20T00:22:08;53090.03;;;1.26
73662;BMP280;61956;52.540;13.382;2022-11-20T00:24:37;53364.31;;;1.26
73662;BMP280;61956;52.540;13.382;2022-11-20T00:27:06;53427.16;;;1.26
73662;BMP280;61956;52.540;13.382;2022-11-20T00:29:38;53218.19;;;1.26
73662;BMP280;61956;52.540;13.382;2022-11-20T00:32:07;52864.44;;;1.23
73662;BMP280;61956;52.540;13.382;2022-11-20T00:34:36;53664.59;;;1.28
73662;BMP280;61956;52.540;13.382;2022-11-20T00:37:05;53935.13;;;1.30
73662;BMP280;61956;52.540;13.382;2022-11-20T00:39:34;53976.13;;;1.31
73662;BMP280;61956;52.540;13.382;2022-11-20T00:42:04;53291.06;;;1.26
73662;BMP280;61956;52.540;13.382;2022-11-20T00:44:33;54478.03;;;1.33
73662;BMP280;61956;52.540;13.382;2022-11-20T00:47:05;54626.78;;;1.34
73662;BMP280;61956;52.540;13.382;2022-11-20T00:49:34;53720.28;;;1.28
73662;BMP280;61956;52.540;13.382;2022-11-20T00:52:04;53505.06;;;1.26
73662;BMP280;61956;52.540;13.382;2022-11-20T00:54:33;53369.34;;;1.26
73662;BMP280;61956;52.540;13.382;2022-11-20T00:57:02;53692.22;;;1.28
73662;BMP280;61956;52.540;13.382;2022-11-20T00:59:31;53741.31;;;1.26
73662;BMP280;61956;52.540;13.382;2022-11-20T01:02:00;54139.13;;;1.31
73662;BMP280;61956;52.540;13.382;2022-11-20T01:04:32;54245.53;;;1.32
73662;BMP280;61956;52.540;13.382;2022-11-20T01:07:01;53863.53;;;1.28
73662;BMP280;61956;52.540;13.382;2022-11-20T01:09:30;53969.91;;;1.29
73662;BMP280;61956;52.540;13.382;2022-11-20T01:11:59;53652.94;;;1.26
73662;BMP280;61956;52.540;13.382;2022-11-20T01:14:28;53378.22;;;1.25
73662;BMP280;61956;52.540;13.382;2022-11-20T01:16:58;54108.97;;;1.31
73662;BMP280;61956;52.540;13.382;2022-11-20T01:19:27;53507.56;;;1.26
73662;BMP280;61956;52.540;13.382;2022-11-20T01:21:58;53971.63;;;1.28
73662;BMP280;61956;52.540;13.382;2022-11-20T01:24:27;53739.19;;;1.27
73662;BMP280;61956;52.540;13.382;2022-11-20T01:26:57;54120.34;;;1.29
73662;BMP280;61956;52.540;13.382;2022-11-20T01:29:25;54403.13;;;1.31
73662;BMP280;61956;52.540;13.382;2022-11-20T01:31:55;54693.84;;;1.33
73662;BMP280;61956;52.540;13.382;2022-11-20T01:34:24;54776.84;;;1.33
73662;BMP280;61956;52.540;13.382;2022-11-20T01:36:53;54317.63;;;1.31
73662;BMP280;61956;52.540;13.382;2022-11-20T01:39:26;54415.69;;;1.31
73662;BMP280;61956;52.540;13.382;2022-11-20T01:41:55;54114.00;;;1.31
73662;BMP280;61956;52.540;13.382;2022-11-20T01:44:48;53223.34;;;1.23
73662;BMP280;61956;52.540;13.382;2022-11-20T01:47:29;53556.25;;;1.24
73662;BMP280;61956;52.540;13.382;2022-11-20T01:50:05;53781.53;;;1.26
73662;BMP280;61956;52.540;13.382;2022-11-20T01:52:43;52829.44;;;1.20
73662;BMP280;61956;52.540;13.382;2022-11-20T01:55:23;53728.75;;;1.26
73662;BMP280;61956;52.540;13.382;2022-11-20T01:57:57;53399.25;;;1.23
73662;BMP280;61956;52.540;13.382;2022-11-20T02:00:28;53874.53;;;1.26
73662;BMP280;61956;52.540;13.382;2022-11-20T02:03:01;54855.22;;;1.33
73662;BMP280;61956;52.540;13.382;2022-11-20T02:05:35;53627.81;;;1.26
73662;BMP280;61956;52.540;13.382;2022-11-20T02:08:09;53431.53;;;1.22
73662;BMP280;61956;52.540;13.382;2022-11-20T02:10:42;53020.78;;;1.21
73662;BMP280;61956;52.540;13.382;2022-11-20T02:13:11;53348.22;;;1.22
73662;BMP280;61956;52.540;13.382;2022-11-20T02:15:52;53614.06;;;1.24
73662;BMP280;61956;52.540;13.382;2022-11-20T02:18:22;53423.59;;;1.22
73662;BMP280;61956;52.540;13.382;2022-11-20T02:20:57;53509.44;;;1.22
73662;BMP280;61956;52.540;13.382;2022-11-20T02:23:33;52794.84;;;1.18
73662;BMP280;61956;52.540;13.382;2022-11-20T02:26:12;52184.66;;;1.15
73662;BMP280;61956;52.540;13.382;2022-11-20T02:28:44;52359.13;;;1.16
73662;BMP280;61956;52.540;13.382;2022-11-20T02:31:13;52868.50;;;1.19
73662;BMP280;61956;52.540;13.382;2022-11-20T02:33:42;52742.09;;;1.18
73662;BMP280;61956;52.540;13.382;2022-11-20T02:36:15;52776.88;;;1.17
73662;BMP280;61956;52.540;13.382;2022-11-20T02:38:45;52812.44;;;1.18
73662;BMP280;61956;52.540;13.382;2022-11-20T02:41:17;52185.25;;;1.12
73662;BMP280;61956;52.540;13.382;2022-11-20T02:43:46;52717.94;;;1.16
73662;BMP280;61956;52.540;13.382;2022-11-20T02:46:15;51835.06;;;1.11
73662;BMP280;61956;52.540;13.382;2022-11-20T02:48:44;52104.53;;;1.12
73662;BMP280;61956;52.540;13.382;2022-11-20T02:51:13;52332.09;;;1.14
73662;BMP280;61956;52.540;13.382;2022-11-20T02:53:42;52250.19;;;1.12
73662;BMP280;61956;52.540;13.382;2022-11-20T02:56:12;52336.34;;;1.13
73662;BMP280;61956;52.540;13.382;2022-11-20T02:58:43;53179.22;;;1.18
73662;BMP280;61956;52.540;13.382;2022-11-20T03:01:13;53752.41;;;1.21
73662;BMP280;61956;52.540;13.382;2022-11-20T03:03:41;53360.94;;;1.19
73662;BMP280;61956;52.540;13.382;2022-11-20T03:06:11;54057.72;;;1.23
73662;BMP280;61956;52.540;13.382;2022-11-20T03:08:40;52949.06;;;1.16
73662;BMP280;61956;52.540;13.382;2022-11-20T03:11:09;51909.63;;;1.10
73662;BMP280;61956;52.540;13.382;2022-11-20T03:13:38;52407.03;;;1.13
73662;BMP280;61956;52.540;13.382;2022-11-20T03:16:12;53100.56;;;1.17
73662;BMP280;61956;52.540;13.382;2022-11-20T03:18:42;53560.63;;;1.20
73662;BMP280;61956;52.540;13.382;2022-11-20T03:21:13;53804.81;;;1.21
73662;BMP280;61956;52.540;13.382;2022-11-20T03:23:43;53679.53;;;1.21
73662;BMP280;61956;52.540;13.382;2022-11-20T03:26:14;53993.69;;;1.21
73662;BMP280;61956;52.540;13.382;2022-11-20T03:28:48;54038.53;;;1.21
73662;BMP280;61956;52.540;13.382;2022-11-20T03:31:24;54567.50;;;1.25
73662;BMP280;61956;52.540;13.382;2022-11-20T03:33:55;55038.03;;;1.29
73662;BMP280;61956;52.540;13.382;2022-11-20T03:36:25;54538.16;;;1.26
73662;BMP280;61956;52.540;13.382;2022-11-20T03:38:56;53628.47;;;1.20
73662;BMP280;61956;52.540;13.382;2022-11-20T03:41:27;53390.69;;;1.18
73662;BMP280;61956;52.540;13.382;2022-11-20T03:43:59;52885.47;;;1.15
73662;BMP280;61956;52.540;13.382;2022-11-20T03:46:32;52304.28;;;1.10
73662;BMP280;61956;52.540;13.382;2022-11-20T03:49:02;52393.72;;;1.12
73662;BMP280;61956;52.540;13.382;2022-11-20T03:51:34;52256.56;;;1.10
73662;BMP280;61956;52.540;13.382;2022-11-20T03:54:06;52261.97;;;1.11
73662;BMP280;61956;52.540;13.382;2022-11-20T03:56:37;52445.28;;;1.11
73662;BMP280;61956;52.540;13.382;2022-11-20T03:59:10;52488.38;;;1.11
73662;BMP280;61956;52.540;13.382;2022-11-20T04:01:41;52470.03;;;1.10
73662;BMP280;61956;52.540;13.382;2022-11-20T04:04:11;52399.69;;;1.10
73662;BMP280;61956;52.540;13.382;2022-11-20T04:06:40;51663.41;;;1.06
73662;BMP280;61956;52.540;13.382;2022-11-20T04:09:09;51542.50;;;1.05
73662;BMP280;61956;52.540;13.382;2022-11-20T04:11:40;51205.63;;;1.01
73662;BMP280;61956;52.540;13.382;2022-11-20T04:14:13;50665.56;;;0.97
73662;BMP280;61956;52.540;13.382;2022-11-20T04:16:45;50416.41;;;0.96
73662;BMP280;61956;52.540;13.382;2022-11-20T04:19:15;50401.34;;;0.96
73662;BMP280;61956;52.540;13.382;2022-11-20T04:21:45;50650.13;;;0.97
73662;BMP280;61956;52.540;13.382;2022-11-20T04:24:14;50803.94;;;0.98
73662;BMP280;61956;52.540;13.382;2022-11-20T04:26:43;50692.81;;;0.97
73662;BMP280;61956;52.540;13.382;2022-11-20T04:29:12;50959.91;;;0.98
73662;BMP280;61956;52.540;13.382;2022-11-20T04:31:42;50508.13;;;0.95
73662;BMP280;61956;52.540;13.382;2022-11-20T04:34:13;50810.38;;;0.96
73662;BMP280;61956;52.540;13.382;2022-11-20T04:36:43;51019.78;;;0.98
73662;BMP280;61956;52.540;13.382;2022-11-20T04:39:13;50227.78;;;0.92
73662;BMP280;61956;52.540;13.382;2022-11-20T04:41:43;50129.94;;;0.92
73662;BMP280;61956;52.540;13.382;2022-11-20T04:44:12;49876.91;;;0.89
73662;BMP280;61956;52.540;13.382;2022-11-20T04:46:45;50414.56;;;0.94
73662;BMP280;61956;52.540;13.382;2022-11-20T04:49:14;50687.69;;;0.93
73662;BMP280;61956;52.540;13.382;2022-11-20T04:51:43;50636.75;;;0.92
73662;BMP280;61956;52.540;13.382;2022-11-20T04:54:13;50766.22;;;0.94
73662;BMP280;61956;52.540;13.382;2022-11-20T04:56:42;49891.97;;;0.89
73662;BMP280;61956;52.540;13.382;2022-11-20T04:59:11;50216.66;;;0.91
73662;BMP280;61956;52.540;13.382;2022-11-20T05:01:40;49940.66;;;0.87
73662;BMP280;61956;52.540;13.382;2022-11-20T05:04:12;49525.72;;;0.85
73662;BMP280;61956;52.540;13.382;2022-11-20T05:06:41;50226.31;;;0.90
73662;BMP280;61956;52.540;13.382;2022-11-20T05:09:11;49905.19;;;0.86
73662;BMP280;61956;52.540;13.382;2022-11-20T05:11:40;50722.44;;;0.93
73662;BMP280;61956;52.540;13.382;2022-11-20T05:14:09;50461.78;;;0.90
73662;BMP280;61956;52.540;13.382;2022-11-20T05:16:38;50112.72;;;0.89
73662;BMP280;61956;52.540;13.382;2022-11-20T05:19:08;50252.81;;;0.89
73662;BMP280;61956;52.540;13.382;2022-11-20T05:21:40;50463.94;;;0.89
73662;BMP280;61956;52.540;13.382;2022-11-20T05:24:09;50232.00;;;0.88
73662;BMP280;61956;52.540;13.382;2022-11-20T05:26:38;49992.97;;;0.86
73662;BMP280;61956;52.540;13.382;2022-11-20T05:29:10;50698.75;;;0.91
73662;BMP280;61956;52.540;13.382;2022-11-20T05:31:40;51074.13;;;0.93
73662;BMP280;61956;52.540;13.382;2022-11-20T05:34:10;51970.78;;;0.97
73662;BMP280;61956;52.540;13.382;2022-11-20T05:36:41;52347.97;;;1.01
73662;BMP280;61956;52.540;13.382;2022-11-20T05:39:11;51817.25;;;0.97
73662;BMP280;61956;52.540;13.382;2022-11-20T05:41:40;52112.53;;;0.99
73662;BMP280;61956;52.540;13.382;2022-11-20T05:44:10;52743.00;;;1.02
73662;BMP280;61956;52.540;13.382;2022-11-20T05:46:40;52904.91;;;1.04
73662;BMP280;61956;52.540;13.382;2022-11-20T05:49:09;52937.97;;;1.04
73662;BMP280;61956;52.540;13.382;2022-11-20T05:51:41;53253.13;;;1.06
73662;BMP280;61956;52.540;13.382;2022-11-20T05:54:10;53992.44;;;1.10
73662;BMP280;61956;52.540;13.382;2022-11-20T05:56:39;53538.56;;;1.08
73662;BMP280;61956;52.540;13.382;2022-11-20T05:59:08;53989.53;;;1.10
73662;BMP280;61956;52.540;13.382;2022-11-20T06:01:37;53861.78;;;1.10
73662;BMP280;61956;52.540;13.382;2022-11-20T06:04:07;53733.22;;;1.10
73662;BMP280;61956;52.540;13.382;2022-11-20T06:06:36;54190.06;;;1.12
73662;BMP280;61956;52.540;13.382;2022-11-20T06:09:08;54372.63;;;1.14
73662;BMP280;61956;52.540;13.382;2022-11-20T06:11:37;54165.34;;;1.13
73662;BMP280;61956;52.540;13.382;2022-11-20T06:14:06;54661.22;;;1.17
73662;BMP280;61956;52.540;13.382;2022-11-20T06:16:35;54783.97;;;1.16
73662;BMP280;61956;52.540;13.382;2022-11-20T06:19:04;54925.56;;;1.17
73662;BMP280;61956;52.540;13.382;2022-11-20T06:21:33;55499.63;;;1.21
73662;BMP280;61956;52.540;13.382;2022-11-20T06:24:03;54818.28;;;1.18
73662;BMP280;61956;52.540;13.382;2022-11-20T06:26:35;55202.91;;;1.21
73662;BMP280;61956;52.540;13.382;2022-11-20T06:29:05;55161.84;;;1.20
73662;BMP280;61956;52.540;13.382;2022-11-20T06:31:34;54721.13;;;1.16
73662;BMP280;61956;52.540;13.382;2022-11-20T06:34:03;54668.34;;;1.16
73662;BMP280;61956;52.540;13.382;2022-11-20T06:36:33;55401.53;;;1.21
73662;BMP280;61956;52.540;13.382;2022-11-20T06:39:02;55206.69;;;1.20
73662;BMP280;61956;52.540;13.382;2022-11-20T06:41:34;55373.47;;;1.21
73662;BMP280;61956;52.540;13.382;2022-11-20T06:44:04;54868.16;;;1.18
73662;BMP280;61956;52.540;13.382;2022-11-20T06:46:33;55356.28;;;1.21
73662;BMP280;61956;52.540;13.382;2022-11-20T06:49:03;54789.41;;;1.17
73662;BMP280;61956;52.540;13.382;2022-11-20T06:51:32;54128.44;;;1.14
73662;BMP280;61956;52.540;13.382;2022-11-20T06:54:01;53831.09;;;1.13
73662;BMP280;61956;52.540;13.382;2022-11-20T06:56:30;54158.59;;;1.14
73662;BMP280;61956;52.540;13.382;2022-11-20T06:59:04;54122.63;;;1.13
73662;BMP280;61956;52.540;13.382;2022-11-20T07:01:34;54519.22;;;1.15
73662;BMP280;61956;52.540;13.382;2022-11-20T07:04:03;54671.25;;;1.17
73662;BMP280;61956;52.540;13.382;2022-11-20T07:06:33;54156.50;;;1.14
73662;BMP280;61956;52.540;13.382;2022-11-20T07:09:02;54060.19;;;1.13
73662;BMP280;61956;52.540;13.382;2022-11-20T07:11:34;54407.44;;;1.14
73662;BMP280;61956;52.540;13.382;2022-11-20T07:14:03;54525.56;;;1.14
73662;BMP280;61956;52.540;13.382;2022-11-20T07:16:32;54112.16;;;1.12
73662;BMP280;61956;52.540;13.382;2022-11-20T07:19:01;55056.72;;;1.18
73662;BMP280;61956;52.540;13.382;2022-11-20T07:21:30;54668.34;;;1.16
73662;BMP280;61956;52.540;13.382;2022-11-20T07:24:00;53900.28;;;1.11
73662;BMP280;61956;52.540;13.382;2022-11-20T07:26:29;54417.88;;;1.14
73662;BMP280;61956;52.540;13.382;2022-11-20T07:29:01;54386.91;;;1.13
73662;BMP280;61956;52.540;13.382;2022-11-20T07:31:30;54375.16;;;1.14
73662;BMP280;61956;52.540;13.382;2022-11-20T07:33:59;54760.53;;;1.15
73662;BMP280;61956;52.540;13.382;2022-11-20T07:36:28;54427.94;;;1.14
73662;BMP280;61956;52.540;13.382;2022-11-20T07:38:58;54347.09;;;1.14
73662;BMP280;61956;52.540;13.382;2022-11-20T07:41:29;54521.34;;;1.15
73662;BMP280;61956;52.540;13.382;2022-11-20T07:44:01;54294.31;;;1.14
73662;BMP280;61956;52.540;13.382;2022-11-20T07:46:31;54220.63;;;1.13
73662;BMP280;61956;52.540;13.382;2022-11-20T07:49:00;54900.03;;;1.17
73662;BMP280;61956;52.540;13.382;2022-11-20T07:51:29;55167.75;;;1.18
73662;BMP280;61956;52.540;13.382;2022-11-20T07:53:59;55875.16;;;1.22
73662;BMP280;61956;52.540;13.382;2022-11-20T07:56:28;55511.34;;;1.20
73662;BMP280;61956;52.540;13.382;2022-11-20T07:58:57;55461.50;;;1.21
73662;BMP280;61956;52.540;13.382;2022-11-20T08:01:29;55673.13;;;1.21
73662;BMP280;61956;52.540;13.382;2022-11-20T08:03:58;56551.41;;;1.28
73662;BMP280;61956;52.540;13.382;2022-11-20T08:06:28;56249.50;;;1.25
73662;BMP280;61956;52.540;13.382;2022-11-20T08:08:57;55079.75;;;1.18
73662;BMP280;61956;52.540;13.382;2022-11-20T08:11:27;54089.53;;;1.12
73662;BMP280;61956;52.540;13.382;2022-11-20T08:14:10;54371.81;;;1.13
73662;BMP280;61956;52.540;13.382;2022-11-20T08:16:46;54699.81;;;1.15
73662;BMP280;61956;52.540;13.382;2022-11-20T08:19:18;55459.84;;;1.19
73662;BMP280;61956;52.540;13.382;2022-11-20T08:21:47;56049.56;;;1.23
73662;BMP280;61956;52.540;13.382;2022-11-20T08:24:16;56567.75;;;1.26
73662;BMP280;61956;52.540;13.382;2022-11-20T08:26:46;56510.31;;;1.27
73662;BMP280;61956;52.540;13.382;2022-11-20T08:29:15;56295.22;;;1.25
73662;BMP280;61956;52.540;13.382;2022-11-20T08:31:47;54576.63;;;1.15
73662;BMP280;61956;52.540;13.382;2022-11-20T08:34:16;54366.41;;;1.13
73662;BMP280;61956;52.540;13.382;2022-11-20T08:36:46;54091.66;;;1.12
73662;BMP280;61956;52.540;13.382;2022-11-20T08:39:15;53568.72;;;1.08
73662;BMP280;61956;52.540;13.382;2022-11-20T08:41:45;53861.00;;;1.09
73662;BMP280;61956;52.540;13.382;2022-11-20T08:44:14;55127.09;;;1.18
73662;BMP280;61956;52.540;13.382;2022-11-20T08:46:43;55515.97;;;1.20
73662;BMP280;61956;52.540;13.382;2022-11-20T08:49:15;56754.78;;;1.27
73662;BMP280;61956;52.540;13.382;2022-11-20T08:51:45;56964.91;;;1.29
73662;BMP280;61956;52.540;13.382;2022-11-20T08:54:17;57723.38;;;1.33
73662;BMP280;61956;52.540;13.382;2022-11-20T08:56:48;57833.31;;;1.35
73662;BMP280;61956;52.540;13.382;2022-11-20T08:59:17;58514.06;;;1.39
73662;BMP280;61956;52.540;13.382;2022-11-20T09:01:46;57920.63;;;1.37
73662;BMP280;61956;52.540;13.382;2022-11-20T09:04:18;59362.66;;;1.45
73662;BMP280;61956;52.540;13.382;2022-11-20T09:06:47;57310.13;;;1.33
73662;BMP280;61956;52.540;13.382;2022-11-20T09:09:17;56508.66;;;1.28
73662;BMP280;61956;52.540;13.382;2022-11-20T09:11:47;55600.22;;;1.21
73662;BMP280;61956;52.540;13.382;2022-11-20T09:14:16;56512.00;;;1.26
73662;BMP280;61956;52.540;13.382;2022-11-20T09:16:46;56522.88;;;1.27
73662;BMP280;61956;52.540;13.382;2022-11-20T09:19:18;56078.06;;;1.24
73662;BMP280;61956;52.540;13.382;2022-11-20T09:21:47;56876.84;;;1.29
73662;BMP280;61956;52.540;13.382;2022-11-20T09:24:16;58241.69;;;1.39
73662;BMP280;61956;52.540;13.382;2022-11-20T09:26:46;58884.84;;;1.43
73662;BMP280;61956;52.540;13.382;2022-11-20T09:29:15;58912.09;;;1.42
73662;BMP280;61956;52.540;13.382;2022-11-20T09:31:44;58795.03;;;1.44
73662;BMP280;61956;52.540;13.382;2022-11-20T09:34:14;59004.97;;;1.45
73662;BMP280;61956;52.540;13.382;2022-11-20T09:36:46;59465.66;;;1.47
73662;BMP280;61956;52.540;13.382;2022-11-20T09:39:15;59445.97;;;1.48
73662;BMP280;61956;52.540;13.382;2022-11-20T09:42:02;60716.19;;;1.57
73662;BMP280;61956;52.540;13.382;2022-11-20T09:44:56;60878.44;;;1.58
73662;BMP280;61956;52.540;13.382;2022-11-20T09:47:52;62127.47;;;1.67
73662;BMP280;61956;52.540;13.382;2022-11-20T09:50:32;62889.56;;;1.72
73662;BMP280;61956;52.540;13.382;2022-11-20T09:53:12;63682.25;;;1.78
73662;BMP280;61956;52.540;13.382;2022-11-20T09:55:45;63526.72;;;1.79
73662;BMP280;61956;52.540;13.382;2022-11-20T09:58:25;64555.09;;;1.85
73662;BMP280;61956;52.540;13.382;2022-11-20T10:01:07;63321.31;;;1.78
73662;BMP280;61956;52.540;13.382;2022-11-20T10:03:53;64887.31;;;1.89
73662;BMP280;61956;52.540;13.382;2022-11-20T10:06:29;66240.97;;;1.99
73662;BMP280;61956;52.540;13.382;2022-11-20T10:09:22;67381.25;;;2.07
73662;BMP280;61956;52.540;13.382;2022-11-20T10:12:09;68492.38;;;2.15
73662;BMP280;61956;52.540;13.382;2022-11-20T10:14:58;68192.78;;;2.14
73662;BMP280;61956;52.540;13.382;2022-11-20T10:17:57;67698.47;;;2.13
73662;BMP280;61956;52.540;13.382;2022-11-20T10:20:46;64222.50;;;1.91
73662;BMP280;61956;52.540;13.382;2022-11-20T10:23:30;63362.38;;;1.84
73662;BMP280;61956;52.540;13.382;2022-11-20T10:26:22;64733.13;;;1.94
73662;BMP280;61956;52.540;13.382;2022-11-20T10:29:09;64190.66;;;1.92
73662;BMP280;61956;52.540;13.382;2022-11-20T10:31:43;65280.69;;;1.99
73662;BMP280;61956;52.540;13.382;2022-11-20T10:34:20;64583.09;;;1.93
73662;BMP280;61956;52.540;13.382;2022-11-20T10:36:55;64362.88;;;1.93
73662;BMP280;61956;52.540;13.382;2022-11-20T10:39:34;64546.19;;;1.94
73662;BMP280;61956;52.540;13.382;2022-11-20T10:42:15;65899.72;;;2.04
73662;BMP280;61956;52.540;13.382;2022-11-20T10:45:02;65911.34;;;2.06
73662;BMP280;61956;52.540;13.382;2022-11-20T10:47:44;65898.72;;;2.06
73662;BMP280;61956;52.540;13.382;2022-11-20T10:50:16;64983.56;;;2.00
73662;BMP280;61956;52.540;13.382;2022-11-20T10:52:56;65871.91;;;2.07
73662;BMP280;61956;52.540;13.382;2022-11-20T10:55:40;68837.91;;;2.26
73662;BMP280;61956;52.540;13.382;2022-11-20T10:58:24;72105.63;;;2.48
73662;BMP280;61956;52.540;13.382;2022-11-20T11:01:05;75108.06;;;2.68
73662;BMP280;61956;52.540;13.382;2022-11-20T11:03:34;74463.69;;;2.66
73662;BMP280;61956;52.540;13.382;2022-11-20T11:06:07;75230.63;;;2.73
73662;BMP280;61956;52.540;13.382;2022-11-20T11:08:41;72675.63;;;2.59
73662;BMP280;61956;52.540;13.382;2022-11-20T11:11:20;71844.13;;;2.55
73662;BMP280;61956;52.540;13.382;2022-11-20T11:14:04;71302.09;;;2.53
73662;BMP280;61956;52.540;13.382;2022-11-20T11:16:34;70855.91;;;2.50
73662;BMP280;61956;52.540;13.382;2022-11-20T11:19:05;69982.16;;;2.46
73662;BMP280;61956;52.540;13.382;2022-11-20T11:21:35;71561.34;;;2.56
73662;BMP280;61956;52.540;13.382;2022-11-20T11:24:19;71075.66;;;2.54
73662;BMP280;61956;52.540;13.382;2022-11-20T11:26:56;71185.69;;;2.55
73662;BMP280;61956;52.540;13.382;2022-11-20T11:29:33;70640.19;;;2.52
73662;BMP280;61956;52.540;13.382;2022-11-20T11:32:06;69987.38;;;2.48
73662;BMP280;61956;52.540;13.382;2022-11-20T11:34:39;68354.38;;;2.38
73662;BMP280;61956;52.540;13.382;2022-11-20T11:37:14;69150.50;;;2.45
73662;BMP280;61956;52.540;13.382;2022-11-20T11:39:48;68758.50;;;2.43
73662;BMP280;61956;52.540;13.382;2022-11-20T11:42:21;67953.47;;;2.37
73662;BMP280;61956;52.540;13.382;2022-11-20T11:44:53;67784.88;;;2.36
73662;BMP280;61956;52.540;13.382;2022-11-20T11:47:36;68197.44;;;2.38
73662;BMP280;61956;52.540;13.382;2022-11-20T11:50:18;67844.13;;;2.37
73662;BMP280;61956;52.540;13.382;2022-11-20T11:52:56;65799.91;;;2.24
73662;BMP280;61956;52.540;13.382;2022-11-20T11:55:33;64473.78;;;2.14
73662;BMP280;61956;52.540;13.382;2022-11-20T11:58:11;64891.13;;;2.17
73662;BMP280;61956;52.540;13.382;2022-11-20T12:00:58;63623.22;;;2.09
73662;BMP280;61956;52.540;13.382;2022-11-20T12:03:35;62659.06;;;2.02
73662;BMP280;61956;52.540;13.382;2022-11-20T12:06:11;61603.09;;;1.95
73662;BMP280;61956;52.540;13.382;2022-11-20T12:08:46;61126.00;;;1.92
73662;BMP280;61956;52.540;13.382;2022-11-20T12:11:24;61857.94;;;1.95
73662;BMP280;61956;52.540;13.382;2022-11-20T12:14:08;61781.78;;;1.94
73662;BMP280;61956;52.540;13.382;2022-11-20T12:16:47;61857.00;;;1.94
73662;BMP280;61956;52.540;13.382;2022-11-20T12:19:16;62940.88;;;2.01
73662;BMP280;61956;52.540;13.382;2022-11-20T12:21:53;62988.84;;;2.01
73662;BMP280;61956;52.540;13.382;2022-11-20T12:24:45;62724.38;;;1.99
73662;BMP280;61956;52.540;13.382;2022-11-20T12:27:40;64536.06;;;2.10
73662;BMP280;61956;52.540;13.382;2022-11-20T12:30:19;64569.88;;;2.11
73662;BMP280;61956;52.540;13.382;2022-11-20T12:33:12;65090.84;;;2.14
73662;BMP280;61956;52.540;13.382;2022-11-20T12:36:07;65533.56;;;2.17
73662;BMP280;61956;52.540;13.382;2022-11-20T12:39:01;65698.34;;;2.18
73662;BMP280;61956;52.540;13.382;2022-11-20T12:42:08;65813.13;;;2.19
73662;BMP280;61956;52.540;13.382;2022-11-20T12:45:24;65724.13;;;2.18
73662;BMP280;61956;52.540;13.382;2022-11-20T12:48:33;65671.56;;;2.19
73662;BMP280;61956;52.540;13.382;2022-11-20T12:51:20;68182.19;;;2.36
73662;BMP280;61956;52.540;13.382;2022-11-20T12:54:31;71962.84;;;2.61
73662;BMP280;61956;52.540;13.382;2022-11-20T12:57:16;72561.66;;;2.67
73662;BMP280;61956;52.540;13.382;2022-11-20T13:00:02;71984.44;;;2.65
73662;BMP280;61956;52.540;13.382;2022-11-20T13:02:55;70338.84;;;2.55
73662;BMP280;61956;52.540;13.382;2022-11-20T13:05:46;68762.16;;;2.46
73662;BMP280;61956;52.540;13.382;2022-11-20T13:08:25;69307.69;;;2.50
73662;BMP280;61956;52.540;13.382;2022-11-20T13:11:01;68948.56;;;2.48
73662;BMP280;61956;52.540;13.382;2022-11-20T13:13:47;68756.13;;;2.48
73662;BMP280;61956;52.540;13.382;2022-11-20T13:16:37;68896.34;;;2.46
73662;BMP280;61956;52.540;13.382;2022-11-20T13:19:15;68909.09;;;2.49
73662;BMP280;61956;52.540;13.382;2022-11-20T13:21:49;68548.03;;;2.47
73662;BMP280;61956;52.540;13.382;2022-11-20T13:24:24;67722.25;;;2.42
73662;BMP280;61956;52.540;13.382;2022-11-20T13:27:04;66775.97;;;2.36
73662;BMP280;61956;52.540;13.382;2022-11-20T13:29:47;67047.66;;;2.37
73662;BMP280;61956;52.540;13.382;2022-11-20T13:32:29;66058.22;;;2.32
73662;BMP280;61956;52.540;13.382;2022-11-20T13:35:00;64737.31;;;2.23
73662;BMP280;61956;52.540;13.382;2022-11-20T13:37:35;65833.22;;;2.29
73662;BMP280;61956;52.540;13.382;2022-11-20T13:40:19;65074.41;;;2.24
73662;BMP280;61956;52.540;13.382;2022-11-20T13:43:04;65037.50;;;2.25
73662;BMP280;61956;52.540;13.382;2022-11-20T13:45:36;64795.44;;;2.23
73662;BMP280;61956;52.540;13.382;2022-11-20T13:48:19;64716.69;;;2.20
73662;BMP280;61956;52.540;13.382;2022-11-20T13:50:59;64169.94;;;2.18
73662;BMP280;61956;52.540;13.382;2022-11-20T14:00:15;61487.06;;;2.01
73662;BMP280;61956;52.540;13.382;2022-11-20T14:03:06;62246.50;;;2.03
73662;BMP280;61956;52.540;13.382;2022-11-20T14:05:52;62302.50;;;2.04
73662;BMP280;61956;52.540;13.382;2022-11-20T14:08:31;62472.09;;;2.04
73662;BMP280;61956;52.540;13.382;2022-11-20T14:11:13;61794.91;;;2.01
73662;BMP280;61956;52.540;13.382;2022-11-20T14:13:59;61900.00;;;2.00
73662;BMP280;61956;52.540;13.382;2022-11-20T14:16:32;62494.81;;;2.04
73662;BMP280;61956;52.540;13.382;2022-11-20T14:19:26;61900.44;;;2.00
73662;BMP280;61956;52.540;13.382;2022-11-20T14:22:17;61479.69;;;1.98
73662;BMP280;61956;52.540;13.382;2022-11-20T14:25:00;61695.78;;;1.97
73662;BMP280;61956;52.540;13.382;2022-11-20T14:27:37;63140.50;;;2.06
73662;BMP280;61956;52.540;13.382;2022-11-20T14:30:14;61367.97;;;1.94
73662;BMP280;61956;52.540;13.382;2022-11-20T14:32:46;60960.44;;;1.93
73662;BMP280;61956;52.540;13.382;2022-11-20T14:35:21;60868.25;;;1.91
73662;BMP280;61956;52.540;13.382;2022-11-20T14:37:53;60781.56;;;1.90
73662;BMP280;61956;52.540;13.382;2022-11-20T14:40:29;61413.41;;;1.94
73662;BMP280;61956;52.540;13.382;2022-11-20T14:43:17;60290.75;;;1.86
73662;BMP280;61956;52.540;13.382;2022-11-20T14:45:54;60060.84;;;1.85
73662;BMP280;61956;52.540;13.382;2022-11-20T14:48:30;59862.84;;;1.84
73662;BMP280;61956;52.540;13.382;2022-11-20T14:51:02;60366.84;;;1.86
73662;BMP280;61956;52.540;13.382;2022-11-20T14:53:31;59896.31;;;1.82
73662;BMP280;61956;52.540;13.382;2022-11-20T14:56:01;59858.97;;;1.82